sensor_id;sensor_type;location;lat;lon;timestamp;P1;durP1;ratioP1;P2;durP2;ratioP2
49223;SDS011;35050;51.316;5.994;2023-11-21T00:02:14;11.98;;;7.65;;
49223;SDS011;35050;51.316;5.994;2023-11-21T00:04:40;10.60;;;7.75;;
49223;SDS011;35050;51.316;5.994;2023-11-21T00:07:06;9.98;;;6.60;;
49223;SDS011;35050;51.316;5.994;2023-11-21T00:09:32;11.27;;;7.00;;
49223;SDS011;35050;51.316;5.994;2023-11-21T00:11:57;9.75;;;7.10;;
49223;SDS011;35050;51.316;5.994;2023-11-21T00:14:27;10.40;;;7.20;;
49223;SDS011;35050;51.316;5.994;2023-11-21T00:16:53;11.57;;;7.65;;
49223;SDS011;35050;51.316;5.994;2023-11-21T00:19:19;10.48;;;7.78;;
49223;SDS011;35050;51.316;5.994;2023-11-21T00:21:44;11.30;;;7.70;;
49223;SDS011;35050;51.316;5.994;2023-11-21T00:24:11;10.98;;;7.60;;
49223;SDS011;35050;51.316;5.994;2023-11-21T00:26:39;11.57;;;7.88;;
49223;SDS011;35050;51.316;5.994;2023-11-21T00:29:05;10.55;;;7.63;;
49223;SDS011;35050;51.316;5.994;2023-11-21T00:31:33;13.95;;;7.95;;
49223;SDS011;35050;51.316;5.994;2023-11-21T00:34:02;13.32;;;7.82;;
49223;SDS011;35050;51.316;5.994;2023-11-21T00:36:31;10.93;;;7.15;;
49223;SDS011;35050;51.316;5.994;2023-11-21T00:38:57;11.65;;;7.63;;
49223;SDS011;35050;51.316;5.994;2023-11-21T00:41:24;9.65;;;7.53;;
49223;SDS011;35050;51.316;5.994;2023-11-21T00:43:52;11.32;;;7.30;;
49223;SDS011;35050;51.316;5.994;2023-11-21T00:46:18;10.10;;;7.57;;
49223;SDS011;35050;51.316;5.994;2023-11-21T00:48:44;9.85;;;7.85;;
49223;SDS011;35050;51.316;5.994;2023-11-21T00:51:10;11.55;;;7.57;;
49223;SDS011;35050;51.316;5.994;2023-11-21T00:53:35;10.25;;;7.47;;
49223;SDS011;35050;51.316;5.994;2023-11-21T00:56:01;12.00;;;7.50;;
49223;SDS011;35050;51.316;5.994;2023-11-21T00:58:27;13.82;;;8.68;;
49223;SDS011;35050;51.316;5.994;2023-11-21T01:00:53;11.50;;;7.50;;
49223;SDS011;35050;51.316;5.994;2023-11-21T01:03:19;9.60;;;7.72;;
49223;SDS011;35050;51.316;5.994;2023-11-21T01:05:45;12.32;;;7.78;;
49223;SDS011;35050;51.316;5.994;2023-11-21T01:08:11;14.57;;;7.85;;
49223;SDS011;35050;51.316;5.994;2023-11-21T01:10:37;11.90;;;8.48;;
49223;SDS011;35050;51.316;5.994;2023-11-21T01:13:03;17.75;;;8.68;;
49223;SDS011;35050;51.316;5.994;2023-11-21T01:15:32;13.43;;;8.10;;
49223;SDS011;35050;51.316;5.994;2023-11-21T01:18:00;17.30;;;7.97;;
49223;SDS011;35050;51.316;5.994;2023-11-21T01:20:26;17.60;;;8.55;;
49223;SDS011;35050;51.316;5.994;2023-11-21T01:22:51;21.55;;;8.38;;
49223;SDS011;35050;51.316;5.994;2023-11-21T01:25:18;21.42;;;9.18;;
49223;SDS011;35050;51.316;5.994;2023-11-21T01:27:46;20.83;;;9.40;;
49223;SDS011;35050;51.316;5.994;2023-11-21T01:30:11;23.30;;;8.75;;
49223;SDS011;35050;51.316;5.994;2023-11-21T01:32:37;21.00;;;9.27;;
49223;SDS011;35050;51.316;5.994;2023-11-21T01:35:04;19.42;;;8.98;;
49223;SDS011;35050;51.316;5.994;2023-11-21T01:37:31;27.80;;;9.70;;
49223;SDS011;35050;51.316;5.994;2023-11-21T01:39:58;23.35;;;10.77;;
49223;SDS011;35050;51.316;5.994;2023-11-21T01:42:26;21.65;;;10.30;;
49223;SDS011;35050;51.316;5.994;2023-11-21T01:44:52;22.83;;;11.00;;
49223;SDS011;35050;51.316;5.994;2023-11-21T01:47:19;26.10;;;11.70;;
49223;SDS011;35050;51.316;5.994;2023-11-21T01:49:46;24.85;;;11.55;;
49223;SDS011;35050;51.316;5.994;2023-11-21T01:52:12;27.75;;;12.13;;
49223;SDS011;35050;51.316;5.994;2023-11-21T01:54:38;23.98;;;11.73;;
49223;SDS011;35050;51.316;5.994;2023-11-21T01:57:04;25.52;;;11.82;;
49223;SDS011;35050;51.316;5.994;2023-11-21T01:59:34;25.83;;;12.35;;
49223;SDS011;35050;51.316;5.994;2023-11-21T02:02:04;19.15;;;10.50;;
49223;SDS011;35050;51.316;5.994;2023-11-21T02:04:31;21.55;;;11.07;;
49223;SDS011;35050;51.316;5.994;2023-11-21T02:07:02;21.85;;;11.13;;
49223;SDS011;35050;51.316;5.994;2023-11-21T02:09:30;23.83;;;10.75;;
49223;SDS011;35050;51.316;5.994;2023-11-21T02:11:59;21.55;;;10.77;;
49223;SDS011;35050;51.316;5.994;2023-11-21T02:14:26;25.70;;;11.60;;
49223;SDS011;35050;51.316;5.994;2023-11-21T02:16:53;26.25;;;11.18;;
49223;SDS011;35050;51.316;5.994;2023-11-21T02:19:20;30.17;;;11.02;;
49223;SDS011;35050;51.316;5.994;2023-11-21T02:21:54;31.27;;;11.82;;
49223;SDS011;35050;51.316;5.994;2023-11-21T02:24:28;35.30;;;12.27;;
49223;SDS011;35050;51.316;5.994;2023-11-21T02:26:53;30.13;;;12.23;;
49223;SDS011;35050;51.316;5.994;2023-11-21T02:29:20;28.63;;;13.73;;
49223;SDS011;35050;51.316;5.994;2023-11-21T02:31:55;21.83;;;10.75;;
49223;SDS011;35050;51.316;5.994;2023-11-21T02:34:22;27.33;;;11.63;;
49223;SDS011;35050;51.316;5.994;2023-11-21T02:36:48;26.10;;;12.13;;
49223;SDS011;35050;51.316;5.994;2023-11-21T02:39:17;23.55;;;10.73;;
49223;SDS011;35050;51.316;5.994;2023-11-21T02:41:43;27.75;;;12.25;;
49223;SDS011;35050;51.316;5.994;2023-11-21T02:44:09;24.27;;;12.55;;
49223;SDS011;35050;51.316;5.994;2023-11-21T02:46:35;25.90;;;13.15;;
49223;SDS011;35050;51.316;5.994;2023-11-21T02:49:05;27.58;;;12.27;;
49223;SDS011;35050;51.316;5.994;2023-11-21T02:51:31;22.27;;;11.90;;
49223;SDS011;35050;51.316;5.994;2023-11-21T02:53:58;25.05;;;12.35;;
49223;SDS011;35050;51.316;5.994;2023-11-21T02:56:27;31.00;;;12.32;;
49223;SDS011;35050;51.316;5.994;2023-11-21T02:58:55;25.13;;;11.27;;
49223;SDS011;35050;51.316;5.994;2023-11-21T03:01:21;23.30;;;11.82;;
49223;SDS011;35050;51.316;5.994;2023-11-21T03:03:48;21.73;;;11.25;;
49223;SDS011;35050;51.316;5.994;2023-11-21T03:06:16;19.38;;;10.88;;
49223;SDS011;35050;51.316;5.994;2023-11-21T03:08:42;17.63;;;10.43;;
49223;SDS011;35050;51.316;5.994;2023-11-21T03:11:08;17.08;;;10.68;;
49223;SDS011;35050;51.316;5.994;2023-11-21T03:13:33;21.83;;;10.80;;
49223;SDS011;35050;51.316;5.994;2023-11-21T03:15:59;18.23;;;10.05;;
49223;SDS011;35050;51.316;5.994;2023-11-21T03:18:25;21.80;;;11.32;;
49223;SDS011;35050;51.316;5.994;2023-11-21T03:20:52;19.88;;;11.02;;
49223;SDS011;35050;51.316;5.994;2023-11-21T03:23:18;23.15;;;11.70;;
49223;SDS011;35050;51.316;5.994;2023-11-21T03:25:44;21.63;;;10.65;;
49223;SDS011;35050;51.316;5.994;2023-11-21T03:28:09;19.98;;;11.80;;
49223;SDS011;35050;51.316;5.994;2023-11-21T03:30:35;16.88;;;10.75;;
49223;SDS011;35050;51.316;5.994;2023-11-21T03:33:01;18.83;;;10.75;;
49223;SDS011;35050;51.316;5.994;2023-11-21T03:35:26;20.45;;;10.77;;
49223;SDS011;35050;51.316;5.994;2023-11-21T03:37:53;16.58;;;10.13;;
49223;SDS011;35050;51.316;5.994;2023-11-21T03:40:19;16.52;;;10.30;;
49223;SDS011;35050;51.316;5.994;2023-11-21T03:42:46;16.85;;;10.02;;
49223;SDS011;35050;51.316;5.994;2023-11-21T03:45:12;19.25;;;11.15;;
49223;SDS011;35050;51.316;5.994;2023-11-21T03:47:38;16.27;;;10.45;;
49223;SDS011;35050;51.316;5.994;2023-11-21T03:50:04;17.98;;;10.43;;
49223;SDS011;35050;51.316;5.994;2023-11-21T03:52:30;15.77;;;9.68;;
49223;SDS011;35050;51.316;5.994;2023-11-21T03:54:56;15.65;;;9.70;;
49223;SDS011;35050;51.316;5.994;2023-11-21T03:57:21;24.08;;;11.07;;
49223;SDS011;35050;51.316;5.994;2023-11-21T03:59:47;17.00;;;9.45;;
49223;SDS011;35050;51.316;5.994;2023-11-21T04:02:12;16.58;;;9.23;;
49223;SDS011;35050;51.316;5.994;2023-11-21T04:04:38;17.08;;;9.80;;
49223;SDS011;35050;51.316;5.994;2023-11-21T04:07:04;19.13;;;9.77;;
49223;SDS011;35050;51.316;5.994;2023-11-21T04:09:30;16.17;;;9.55;;
49223;SDS011;35050;51.316;5.994;2023-11-21T04:11:56;15.35;;;9.40;;
49223;SDS011;35050;51.316;5.994;2023-11-21T04:14:22;15.40;;;9.88;;
49223;SDS011;35050;51.316;5.994;2023-11-21T04:16:47;17.52;;;10.05;;
49223;SDS011;35050;51.316;5.994;2023-11-21T04:19:13;14.20;;;9.60;;
49223;SDS011;35050;51.316;5.994;2023-11-21T04:21:40;15.70;;;10.07;;
49223;SDS011;35050;51.316;5.994;2023-11-21T04:24:06;14.32;;;10.18;;
49223;SDS011;35050;51.316;5.994;2023-11-21T04:26:32;15.10;;;9.77;;
49223;SDS011;35050;51.316;5.994;2023-11-21T04:28:58;17.52;;;10.65;;
49223;SDS011;35050;51.316;5.994;2023-11-21T04:31:24;17.27;;;10.93;;
49223;SDS011;35050;51.316;5.994;2023-11-21T04:33:49;21.77;;;11.85;;
49223;SDS011;35050;51.316;5.994;2023-11-21T04:36:15;17.92;;;11.00;;
49223;SDS011;35050;51.316;5.994;2023-11-21T04:38:40;22.00;;;11.90;;
49223;SDS011;35050;51.316;5.994;2023-11-21T04:41:06;26.30;;;14.13;;
49223;SDS011;35050;51.316;5.994;2023-11-21T04:43:32;33.50;;;17.58;;
49223;SDS011;35050;51.316;5.994;2023-11-21T04:45:58;40.78;;;18.55;;
49223;SDS011;35050;51.316;5.994;2023-11-21T04:48:24;34.03;;;18.40;;
49223;SDS011;35050;51.316;5.994;2023-11-21T04:50:50;40.50;;;18.77;;
49223;SDS011;35050;51.316;5.994;2023-11-21T04:53:16;50.13;;;19.85;;
49223;SDS011;35050;51.316;5.994;2023-11-21T04:55:42;37.97;;;18.73;;
49223;SDS011;35050;51.316;5.994;2023-11-21T04:58:08;36.85;;;18.77;;
49223;SDS011;35050;51.316;5.994;2023-11-21T05:00:35;34.92;;;17.58;;
49223;SDS011;35050;51.316;5.994;2023-11-21T05:03:01;31.95;;;17.30;;
49223;SDS011;35050;51.316;5.994;2023-11-21T05:05:28;49.33;;;18.35;;
49223;SDS011;35050;51.316;5.994;2023-11-21T05:07:54;32.40;;;17.77;;
49223;SDS011;35050;51.316;5.994;2023-11-21T05:10:20;27.05;;;16.95;;
49223;SDS011;35050;51.316;5.994;2023-11-21T05:12:47;25.52;;;16.85;;
49223;SDS011;35050;51.316;5.994;2023-11-21T05:15:15;52.10;;;17.10;;
49223;SDS011;35050;51.316;5.994;2023-11-21T05:17:42;27.05;;;16.83;;
49223;SDS011;35050;51.316;5.994;2023-11-21T05:20:15;27.52;;;15.15;;
49223;SDS011;35050;51.316;5.994;2023-11-21T05:22:48;67.28;;;17.08;;
49223;SDS011;35050;51.316;5.994;2023-11-21T05:25:15;25.88;;;15.82;;
49223;SDS011;35050;51.316;5.994;2023-11-21T05:27:43;48.92;;;15.98;;
49223;SDS011;35050;51.316;5.994;2023-11-21T05:30:09;47.33;;;16.23;;
49223;SDS011;35050;51.316;5.994;2023-11-21T05:32:37;29.73;;;16.33;;
49223;SDS011;35050;51.316;5.994;2023-11-21T05:35:03;49.60;;;16.52;;
49223;SDS011;35050;51.316;5.994;2023-11-21T05:37:34;25.65;;;14.75;;
49223;SDS011;35050;51.316;5.994;2023-11-21T05:40:00;27.63;;;16.75;;
49223;SDS011;35050;51.316;5.994;2023-11-21T05:42:30;27.67;;;17.08;;
49223;SDS011;35050;51.316;5.994;2023-11-21T05:44:59;26.48;;;15.48;;
49223;SDS011;35050;51.316;5.994;2023-11-21T05:47:42;26.20;;;15.60;;
49223;SDS011;35050;51.316;5.994;2023-11-21T05:50:08;37.05;;;16.38;;
49223;SDS011;35050;51.316;5.994;2023-11-21T05:52:37;24.15;;;15.05;;
49223;SDS011;35050;51.316;5.994;2023-11-21T05:55:04;32.88;;;16.80;;
49223;SDS011;35050;51.316;5.994;2023-11-21T05:57:37;27.75;;;15.95;;
49223;SDS011;35050;51.316;5.994;2023-11-21T06:00:07;26.52;;;16.48;;
49223;SDS011;35050;51.316;5.994;2023-11-21T06:02:46;28.48;;;16.30;;
49223;SDS011;35050;51.316;5.994;2023-11-21T06:05:12;38.38;;;17.17;;
49223;SDS011;35050;51.316;5.994;2023-11-21T06:07:37;25.77;;;14.43;;
49223;SDS011;35050;51.316;5.994;2023-11-21T06:10:07;28.77;;;15.00;;
49223;SDS011;35050;51.316;5.994;2023-11-21T06:12:36;31.45;;;16.98;;
49223;SDS011;35050;51.316;5.994;2023-11-21T06:15:03;28.67;;;15.88;;
49223;SDS011;35050;51.316;5.994;2023-11-21T06:17:30;27.10;;;16.40;;
49223;SDS011;35050;51.316;5.994;2023-11-21T06:19:56;31.60;;;16.48;;
49223;SDS011;35050;51.316;5.994;2023-11-21T06:22:22;31.83;;;16.55;;
49223;SDS011;35050;51.316;5.994;2023-11-21T06:24:48;25.80;;;15.57;;
49223;SDS011;35050;51.316;5.994;2023-11-21T06:27:13;27.80;;;16.80;;
49223;SDS011;35050;51.316;5.994;2023-11-21T06:29:39;28.50;;;16.27;;
49223;SDS011;35050;51.316;5.994;2023-11-21T06:32:04;27.80;;;15.63;;
49223;SDS011;35050;51.316;5.994;2023-11-21T06:34:30;23.55;;;14.73;;
49223;SDS011;35050;51.316;5.994;2023-11-21T06:36:56;26.58;;;14.60;;
49223;SDS011;35050;51.316;5.994;2023-11-21T06:39:22;24.77;;;14.63;;
49223;SDS011;35050;51.316;5.994;2023-11-21T06:41:51;27.08;;;14.98;;
49223;SDS011;35050;51.316;5.994;2023-11-21T06:44:16;26.70;;;14.27;;
49223;SDS011;35050;51.316;5.994;2023-11-21T06:46:42;26.80;;;14.70;;
49223;SDS011;35050;51.316;5.994;2023-11-21T06:49:08;25.70;;;15.52;;
49223;SDS011;35050;51.316;5.994;2023-11-21T06:51:34;25.85;;;15.48;;
49223;SDS011;35050;51.316;5.994;2023-11-21T06:53:59;24.38;;;15.05;;
49223;SDS011;35050;51.316;5.994;2023-11-21T06:56:25;26.27;;;14.60;;
49223;SDS011;35050;51.316;5.994;2023-11-21T06:58:51;26.00;;;15.52;;
49223;SDS011;35050;51.316;5.994;2023-11-21T07:01:19;26.88;;;15.05;;
49223;SDS011;35050;51.316;5.994;2023-11-21T07:03:44;25.05;;;14.18;;
49223;SDS011;35050;51.316;5.994;2023-11-21T07:06:10;24.83;;;14.45;;
49223;SDS011;35050;51.316;5.994;2023-11-21T07:08:36;25.05;;;14.90;;
49223;SDS011;35050;51.316;5.994;2023-11-21T07:11:02;25.42;;;14.93;;
49223;SDS011;35050;51.316;5.994;2023-11-21T07:13:29;24.83;;;13.63;;
49223;SDS011;35050;51.316;5.994;2023-11-21T07:15:55;25.20;;;14.73;;
49223;SDS011;35050;51.316;5.994;2023-11-21T07:18:20;26.90;;;15.20;;
49223;SDS011;35050;51.316;5.994;2023-11-21T07:20:46;27.98;;;14.88;;
49223;SDS011;35050;51.316;5.994;2023-11-21T07:23:11;25.05;;;14.50;;
49223;SDS011;35050;51.316;5.994;2023-11-21T07:25:37;27.35;;;15.95;;
49223;SDS011;35050;51.316;5.994;2023-11-21T07:28:03;27.00;;;15.00;;
49223;SDS011;35050;51.316;5.994;2023-11-21T07:30:30;26.73;;;15.55;;
49223;SDS011;35050;51.316;5.994;2023-11-21T07:32:56;27.63;;;15.45;;
49223;SDS011;35050;51.316;5.994;2023-11-21T07:35:21;29.77;;;15.35;;
49223;SDS011;35050;51.316;5.994;2023-11-21T07:37:47;26.00;;;15.38;;
49223;SDS011;35050;51.316;5.994;2023-11-21T07:40:13;32.33;;;15.00;;
49223;SDS011;35050;51.316;5.994;2023-11-21T07:42:39;28.10;;;15.48;;
49223;SDS011;35050;51.316;5.994;2023-11-21T07:45:07;27.55;;;14.60;;
49223;SDS011;35050;51.316;5.994;2023-11-21T07:47:33;30.85;;;15.18;;
49223;SDS011;35050;51.316;5.994;2023-11-21T07:49:59;31.63;;;15.77;;
49223;SDS011;35050;51.316;5.994;2023-11-21T07:52:28;31.92;;;15.93;;
49223;SDS011;35050;51.316;5.994;2023-11-21T07:54:53;29.20;;;15.07;;
49223;SDS011;35050;51.316;5.994;2023-11-21T07:57:19;29.65;;;15.38;;
49223;SDS011;35050;51.316;5.994;2023-11-21T07:59:45;34.17;;;15.90;;
49223;SDS011;35050;51.316;5.994;2023-11-21T08:02:10;28.77;;;14.98;;
49223;SDS011;35050;51.316;5.994;2023-11-21T08:04:36;32.47;;;15.52;;
49223;SDS011;35050;51.316;5.994;2023-11-21T08:07:02;31.27;;;15.68;;
49223;SDS011;35050;51.316;5.994;2023-11-21T08:09:28;25.83;;;14.55;;
49223;SDS011;35050;51.316;5.994;2023-11-21T08:11:54;30.55;;;15.98;;
49223;SDS011;35050;51.316;5.994;2023-11-21T08:14:20;38.08;;;17.00;;
49223;SDS011;35050;51.316;5.994;2023-11-21T08:16:46;31.33;;;16.13;;
49223;SDS011;35050;51.316;5.994;2023-11-21T08:19:12;29.25;;;15.57;;
49223;SDS011;35050;51.316;5.994;2023-11-21T08:21:37;28.60;;;15.20;;
49223;SDS011;35050;51.316;5.994;2023-11-21T08:24:05;33.17;;;16.33;;
49223;SDS011;35050;51.316;5.994;2023-11-21T08:26:35;31.83;;;16.92;;
49223;SDS011;35050;51.316;5.994;2023-11-21T08:29:01;30.42;;;15.80;;
49223;SDS011;35050;51.316;5.994;2023-11-21T08:31:27;31.77;;;15.70;;
49223;SDS011;35050;51.316;5.994;2023-11-21T08:33:53;31.90;;;16.02;;
49223;SDS011;35050;51.316;5.994;2023-11-21T08:36:20;34.05;;;16.83;;
49223;SDS011;35050;51.316;5.994;2023-11-21T08:38:49;34.03;;;16.67;;
49223;SDS011;35050;51.316;5.994;2023-11-21T08:41:17;38.50;;;17.20;;
49223;SDS011;35050;51.316;5.994;2023-11-21T08:43:43;34.92;;;17.27;;
49223;SDS011;35050;51.316;5.994;2023-11-21T08:46:09;34.90;;;16.85;;
49223;SDS011;35050;51.316;5.994;2023-11-21T08:48:36;50.45;;;18.27;;
49223;SDS011;35050;51.316;5.994;2023-11-21T08:51:02;37.97;;;19.25;;
49223;SDS011;35050;51.316;5.994;2023-11-21T08:53:29;35.63;;;17.67;;
49223;SDS011;35050;51.316;5.994;2023-11-21T08:55:56;41.30;;;16.92;;
49223;SDS011;35050;51.316;5.994;2023-11-21T08:58:21;36.38;;;17.65;;
49223;SDS011;35050;51.316;5.994;2023-11-21T09:00:47;32.75;;;16.20;;
49223;SDS011;35050;51.316;5.994;2023-11-21T09:03:13;32.40;;;15.63;;
49223;SDS011;35050;51.316;5.994;2023-11-21T09:05:38;34.13;;;17.45;;
49223;SDS011;35050;51.316;5.994;2023-11-21T09:08:05;35.72;;;16.65;;
49223;SDS011;35050;51.316;5.994;2023-11-21T09:10:31;29.73;;;15.50;;
49223;SDS011;35050;51.316;5.994;2023-11-21T09:13:00;33.55;;;16.65;;
49223;SDS011;35050;51.316;5.994;2023-11-21T09:15:26;33.17;;;16.17;;
49223;SDS011;35050;51.316;5.994;2023-11-21T09:17:52;32.33;;;15.68;;
49223;SDS011;35050;51.316;5.994;2023-11-21T09:20:18;35.40;;;16.00;;
49223;SDS011;35050;51.316;5.994;2023-11-21T09:22:47;39.05;;;17.70;;
49223;SDS011;35050;51.316;5.994;2023-11-21T09:25:14;31.65;;;14.90;;
49223;SDS011;35050;51.316;5.994;2023-11-21T09:27:40;32.33;;;15.90;;
49223;SDS011;35050;51.316;5.994;2023-11-21T09:30:06;28.33;;;14.15;;
49223;SDS011;35050;51.316;5.994;2023-11-21T09:32:35;30.23;;;15.57;;
49223;SDS011;35050;51.316;5.994;2023-11-21T09:35:02;27.60;;;13.95;;
49223;SDS011;35050;51.316;5.994;2023-11-21T09:37:33;27.38;;;13.45;;
49223;SDS011;35050;51.316;5.994;2023-11-21T09:39:59;27.05;;;14.02;;
49223;SDS011;35050;51.316;5.994;2023-11-21T09:42:43;25.85;;;13.20;;
49223;SDS011;35050;51.316;5.994;2023-11-21T09:45:26;25.83;;;12.30;;
49223;SDS011;35050;51.316;5.994;2023-11-21T09:47:54;24.70;;;12.45;;
49223;SDS011;35050;51.316;5.994;2023-11-21T09:50:23;25.67;;;12.05;;
49223;SDS011;35050;51.316;5.994;2023-11-21T09:55:24;27.02;;;13.35;;
49223;SDS011;35050;51.316;5.994;2023-11-21T09:57:54;23.48;;;12.43;;
49223;SDS011;35050;51.316;5.994;2023-11-21T10:00:22;26.83;;;12.63;;
49223;SDS011;35050;51.316;5.994;2023-11-21T10:02:52;26.95;;;13.48;;
49223;SDS011;35050;51.316;5.994;2023-11-21T10:05:19;24.83;;;12.93;;
49223;SDS011;35050;51.316;5.994;2023-11-21T10:07:47;24.98;;;12.65;;
49223;SDS011;35050;51.316;5.994;2023-11-21T10:10:14;25.45;;;12.82;;
49223;SDS011;35050;51.316;5.994;2023-11-21T10:12:46;27.50;;;13.02;;
49223;SDS011;35050;51.316;5.994;2023-11-21T10:15:23;27.98;;;13.60;;
49223;SDS011;35050;51.316;5.994;2023-11-21T10:17:53;22.33;;;12.17;;
49223;SDS011;35050;51.316;5.994;2023-11-21T10:20:20;22.92;;;12.05;;
49223;SDS011;35050;51.316;5.994;2023-11-21T10:22:47;25.45;;;13.85;;
49223;SDS011;35050;51.316;5.994;2023-11-21T10:25:13;25.35;;;14.02;;
49223;SDS011;35050;51.316;5.994;2023-11-21T10:27:43;25.17;;;14.10;;
49223;SDS011;35050;51.316;5.994;2023-11-21T10:30:13;23.73;;;12.93;;
49223;SDS011;35050;51.316;5.994;2023-11-21T10:32:41;26.30;;;14.10;;
49223;SDS011;35050;51.316;5.994;2023-11-21T10:35:08;25.38;;;12.90;;
49223;SDS011;35050;51.316;5.994;2023-11-21T10:37:37;22.00;;;12.52;;
49223;SDS011;35050;51.316;5.994;2023-11-21T10:40:09;24.20;;;13.75;;
49223;SDS011;35050;51.316;5.994;2023-11-21T10:42:39;24.38;;;12.65;;
49223;SDS011;35050;51.316;5.994;2023-11-21T10:45:05;21.73;;;12.68;;
49223;SDS011;35050;51.316;5.994;2023-11-21T10:47:39;23.25;;;12.02;;
49223;SDS011;35050;51.316;5.994;2023-11-21T10:50:06;20.38;;;12.13;;
49223;SDS011;35050;51.316;5.994;2023-11-21T10:52:36;25.17;;;12.48;;
49223;SDS011;35050;51.316;5.994;2023-11-21T10:55:15;23.35;;;12.82;;
49223;SDS011;35050;51.316;5.994;2023-11-21T10:57:50;21.25;;;11.65;;
49223;SDS011;35050;51.316;5.994;2023-11-21T11:00:18;19.92;;;10.98;;
49223;SDS011;35050;51.316;5.994;2023-11-21T11:02:46;23.17;;;12.57;;
49223;SDS011;35050;51.316;5.994;2023-11-21T11:05:23;20.63;;;11.68;;
49223;SDS011;35050;51.316;5.994;2023-11-21T11:07:51;21.67;;;11.48;;
49223;SDS011;35050;51.316;5.994;2023-11-21T11:10:44;18.85;;;10.88;;
49223;SDS011;35050;51.316;5.994;2023-11-21T11:13:12;20.13;;;11.68;;
49223;SDS011;35050;51.316;5.994;2023-11-21T11:15:40;19.98;;;11.25;;
49223;SDS011;35050;51.316;5.994;2023-11-21T11:18:06;22.92;;;12.18;;
49223;SDS011;35050;51.316;5.994;2023-11-21T11:20:34;20.15;;;11.90;;
49223;SDS011;35050;51.316;5.994;2023-11-21T11:37:03;19.23;;;11.50;;
49223;SDS011;35050;51.316;5.994;2023-11-21T11:39:37;20.75;;;11.70;;
49223;SDS011;35050;51.316;5.994;2023-11-21T11:42:07;23.55;;;13.00;;
49223;SDS011;35050;51.316;5.994;2023-11-21T11:47:19;21.50;;;12.95;;
49223;SDS011;35050;51.316;5.994;2023-11-21T11:52:54;19.75;;;11.63;;
49223;SDS011;35050;51.316;5.994;2023-11-21T11:55:22;17.67;;;11.40;;
49223;SDS011;35050;51.316;5.994;2023-11-21T11:57:52;15.93;;;10.88;;
49223;SDS011;35050;51.316;5.994;2023-11-21T12:03:00;14.98;;;10.27;;
49223;SDS011;35050;51.316;5.994;2023-11-21T12:05:31;11.70;;;8.45;;
49223;SDS011;35050;51.316;5.994;2023-11-21T12:07:59;12.00;;;8.70;;
49223;SDS011;35050;51.316;5.994;2023-11-21T12:10:27;11.32;;;8.20;;
49223;SDS011;35050;51.316;5.994;2023-11-21T12:12:58;11.13;;;7.05;;
49223;SDS011;35050;51.316;5.994;2023-11-21T12:15:32;11.07;;;7.53;;
49223;SDS011;35050;51.316;5.994;2023-11-21T12:17:58;11.07;;;7.68;;
49223;SDS011;35050;51.316;5.994;2023-11-21T12:20:24;11.73;;;8.13;;
49223;SDS011;35050;51.316;5.994;2023-11-21T12:22:54;12.07;;;8.15;;
49223;SDS011;35050;51.316;5.994;2023-11-21T12:25:21;14.07;;;9.05;;
49223;SDS011;35050;51.316;5.994;2023-11-21T12:27:49;13.95;;;9.57;;
49223;SDS011;35050;51.316;5.994;2023-11-21T12:30:18;16.30;;;9.98;;
49223;SDS011;35050;51.316;5.994;2023-11-21T12:32:50;15.18;;;10.13;;
49223;SDS011;35050;51.316;5.994;2023-11-21T12:35:17;15.18;;;10.13;;
49223;SDS011;35050;51.316;5.994;2023-11-21T12:37:44;15.27;;;9.45;;
49223;SDS011;35050;51.316;5.994;2023-11-21T12:40:12;14.75;;;10.13;;
49223;SDS011;35050;51.316;5.994;2023-11-21T12:42:43;15.60;;;10.40;;
49223;SDS011;35050;51.316;5.994;2023-11-21T12:47:41;14.68;;;8.88;;
49223;SDS011;35050;51.316;5.994;2023-11-21T12:50:22;15.98;;;9.65;;
49223;SDS011;35050;51.316;5.994;2023-11-21T12:52:51;14.57;;;8.93;;
49223;SDS011;35050;51.316;5.994;2023-11-21T12:55:19;13.93;;;9.05;;
49223;SDS011;35050;51.316;5.994;2023-11-21T12:57:50;12.05;;;7.63;;
49223;SDS011;35050;51.316;5.994;2023-11-21T13:00:20;14.38;;;8.82;;
49223;SDS011;35050;51.316;5.994;2023-11-21T13:02:55;15.50;;;9.20;;
49223;SDS011;35050;51.316;5.994;2023-11-21T13:05:28;14.82;;;9.57;;
49223;SDS011;35050;51.316;5.994;2023-11-21T13:07:59;17.50;;;9.13;;
49223;SDS011;35050;51.316;5.994;2023-11-21T13:10:33;12.80;;;8.20;;
49223;SDS011;35050;51.316;5.994;2023-11-21T13:13:05;12.98;;;8.05;;
49223;SDS011;35050;51.316;5.994;2023-11-21T13:15:34;12.97;;;8.43;;
49223;SDS011;35050;51.316;5.994;2023-11-21T13:18:01;11.20;;;7.55;;
49223;SDS011;35050;51.316;5.994;2023-11-21T13:20:28;11.32;;;7.00;;
49223;SDS011;35050;51.316;5.994;2023-11-21T13:22:55;12.05;;;7.72;;
49223;SDS011;35050;51.316;5.994;2023-11-21T13:25:26;11.02;;;7.25;;
49223;SDS011;35050;51.316;5.994;2023-11-21T13:27:56;11.88;;;7.65;;
49223;SDS011;35050;51.316;5.994;2023-11-21T13:30:25;11.60;;;7.63;;
49223;SDS011;35050;51.316;5.994;2023-11-21T13:32:58;10.48;;;7.40;;
49223;SDS011;35050;51.316;5.994;2023-11-21T13:35:31;14.65;;;9.25;;
49223;SDS011;35050;51.316;5.994;2023-11-21T13:38:03;12.15;;;7.78;;
49223;SDS011;35050;51.316;5.994;2023-11-21T13:40:31;10.40;;;7.95;;
49223;SDS011;35050;51.316;5.994;2023-11-21T13:42:59;12.90;;;8.43;;
49223;SDS011;35050;51.316;5.994;2023-11-21T13:45:29;12.98;;;7.97;;
49223;SDS011;35050;51.316;5.994;2023-11-21T13:47:56;11.02;;;7.72;;
49223;SDS011;35050;51.316;5.994;2023-11-21T13:50:26;10.90;;;8.57;;
49223;SDS011;35050;51.316;5.994;2023-11-21T13:52:58;11.60;;;8.05;;
49223;SDS011;35050;51.316;5.994;2023-11-21T13:55:29;10.75;;;7.93;;
49223;SDS011;35050;51.316;5.994;2023-11-21T13:57:54;8.05;;;7.13;;
49223;SDS011;35050;51.316;5.994;2023-11-21T14:00:20;11.05;;;6.90;;
49223;SDS011;35050;51.316;5.994;2023-11-21T14:03:04;6.97;;;6.28;;
49223;SDS011;35050;51.316;5.994;2023-11-21T14:05:34;11.05;;;7.25;;
49223;SDS011;35050;51.316;5.994;2023-11-21T14:07:59;8.25;;;6.35;;
49223;SDS011;35050;51.316;5.994;2023-11-21T14:10:32;8.98;;;6.82;;
49223;SDS011;35050;51.316;5.994;2023-11-21T14:13:05;7.55;;;6.10;;
49223;SDS011;35050;51.316;5.994;2023-11-21T14:15:31;9.50;;;6.97;;
49223;SDS011;35050;51.316;5.994;2023-11-21T14:17:58;7.93;;;6.82;;
49223;SDS011;35050;51.316;5.994;2023-11-21T14:20:30;8.75;;;6.93;;
49223;SDS011;35050;51.316;5.994;2023-11-21T14:22:56;8.23;;;6.93;;
49223;SDS011;35050;51.316;5.994;2023-11-21T14:25:22;9.48;;;7.20;;
49223;SDS011;35050;51.316;5.994;2023-11-21T14:27:47;9.70;;;7.60;;
49223;SDS011;35050;51.316;5.994;2023-11-21T14:30:13;10.18;;;7.90;;
49223;SDS011;35050;51.316;5.994;2023-11-21T14:32:43;9.63;;;7.55;;
49223;SDS011;35050;51.316;5.994;2023-11-21T14:35:08;11.35;;;9.43;;
49223;SDS011;35050;51.316;5.994;2023-11-21T14:37:34;11.52;;;9.02;;
49223;SDS011;35050;51.316;5.994;2023-11-21T14:40:00;12.18;;;9.70;;
49223;SDS011;35050;51.316;5.994;2023-11-21T14:42:26;12.25;;;10.45;;
49223;SDS011;35050;51.316;5.994;2023-11-21T14:44:54;12.35;;;9.82;;
49223;SDS011;35050;51.316;5.994;2023-11-21T14:47:25;14.98;;;11.50;;
49223;SDS011;35050;51.316;5.994;2023-11-21T14:49:52;13.43;;;11.05;;
49223;SDS011;35050;51.316;5.994;2023-11-21T14:52:18;18.25;;;13.18;;
49223;SDS011;35050;51.316;5.994;2023-11-21T14:55:02;14.55;;;11.80;;
49223;SDS011;35050;51.316;5.994;2023-11-21T14:57:48;15.63;;;12.10;;